Time;durP1;ratioP1;P1;durP2;ratioP2;P2;SDS_P1;SDS_P2;PMS_P1;PMS_P2;Temp;Humidity;BMP_temperature;BMP_pressure;BME280_temperature;BME280_humidity;BME280_pressure;Samples;Min_cycle;Max_cycle;Signal;HPM_P1;HPM_P2
2022/10/08 00:00:07;;;;;;;19.15;3.00;;;13.20;99.90;;;;;;5115225;28;20256;-62
2022/10/08 00:02:37;;;;;;;19.27;4.60;;;13.20;99.90;;;;;;5116585;28;20197;-61
2022/10/08 00:05:03;;;;;;;22.83;3.00;;;13.30;99.90;;;;;;5110384;28;20248;-62
2022/10/08 00:07:28;;;;;;;19.17;2.80;;;13.30;99.90;;;;;;5104244;28;20341;-62
2022/10/08 00:09:54;;;;;;;18.20;2.97;;;13.30;99.90;;;;;;5098167;28;20208;-62
2022/10/08 00:12:20;;;;;;;23.75;3.00;;;13.30;99.90;;;;;;5114052;28;20653;-62
2022/10/08 00:14:46;;;;;;;16.90;3.08;;;13.30;99.90;;;;;;5116171;28;20222;-62
2022/10/08 00:17:11;;;;;;;16.80;2.95;;;13.30;99.90;;;;;;5116646;27;20617;-63
2022/10/08 00:19:37;;;;;;;24.55;3.33;;;13.30;99.90;;;;;;5099802;28;20189;-61
2022/10/08 00:22:03;;;;;;;16.75;2.65;;;13.40;99.90;;;;;;5095026;28;20604;-62
2022/10/08 00:24:30;;;;;;;20.77;3.60;;;13.40;99.90;;;;;;5095369;28;20186;-62
2022/10/08 00:26:57;;;;;;;18.90;3.33;;;13.40;99.90;;;;;;5096410;28;20704;-61
2022/10/08 00:29:22;;;;;;;23.10;3.10;;;13.40;99.90;;;;;;5094580;28;20174;-61
2022/10/08 00:31:49;;;;;;;17.80;3.20;;;13.50;99.90;;;;;;5095606;28;20530;-61
2022/10/08 00:34:19;;;;;;;15.70;3.28;;;13.40;99.90;;;;;;5097495;28;20497;-62
2022/10/08 00:36:46;;;;;;;24.70;2.97;;;13.40;99.90;;;;;;5113101;28;20212;-61
2022/10/08 00:39:14;;;;;;;17.45;2.63;;;13.30;99.90;;;;;;5108029;28;20213;-61
2022/10/08 00:41:41;;;;;;;16.65;3.03;;;13.30;99.90;;;;;;5102938;28;20261;-60
2022/10/08 00:44:44;;;;;;;17.83;3.00;;;13.30;99.90;;;;;;5105624;28;20201;-61
2022/10/08 00:47:30;;;;;;;17.20;3.00;;;13.20;99.90;;;;;;5115645;28;20213;-60
2022/10/08 00:50:00;;;;;;;20.73;2.60;;;13.20;99.90;;;;;;5095292;28;20159;-60
2022/10/08 00:52:29;;;;;;;22.25;3.25;;;13.20;99.90;;;;;;5095447;28;20594;-61
2022/10/08 00:54:56;;;;;;;20.10;3.00;;;13.10;99.90;;;;;;5101834;28;20187;-60
2022/10/08 00:57:22;;;;;;;11.68;2.20;;;13.10;99.90;;;;;;5096574;28;20185;-60
2022/10/08 00:59:48;;;;;;;22.42;3.35;;;13.10;99.90;;;;;;5115589;28;20180;-60
2022/10/08 01:02:14;;;;;;;22.13;2.83;;;13.00;99.90;;;;;;5114372;28;20280;-60
2022/10/08 01:04:41;;;;;;;23.77;3.40;;;13.00;99.90;;;;;;5109712;28;20199;-60
2022/10/08 01:07:21;;;;;;;17.98;3.08;;;12.90;99.90;;;;;;5110648;28;20217;-60
2022/10/08 01:10:00;;;;;;;22.13;2.58;;;12.90;99.90;;;;;;5114348;28;20173;-60
2022/10/08 01:12:49;;;;;;;27.27;2.65;;;12.90;99.90;;;;;;5113966;28;20162;-60
2022/10/08 01:15:43;;;;;;;14.48;3.00;;;12.80;99.90;;;;;;5101506;28;20573;-60
2022/10/08 01:18:25;;;;;;;16.02;2.70;;;12.80;99.90;;;;;;5111417;28;20173;-60
2022/10/08 01:21:08;;;;;;;13.35;3.00;;;12.80;99.90;;;;;;5115015;28;20218;-60
2022/10/08 01:24:16;;;;;;;21.67;2.63;;;12.80;99.90;;;;;;5114017;28;20177;-60
2022/10/08 01:27:12;;;;;;;21.63;2.70;;;12.80;99.90;;;;;;5103811;28;20237;-59
2022/10/08 01:29:45;;;;;;;24.20;3.30;;;12.80;99.90;;;;;;5112865;28;20192;-59
2022/10/08 01:32:18;;;;;;;17.10;3.13;;;12.80;99.90;;;;;;5113123;28;20173;-60
2022/10/08 01:34:52;;;;;;;16.70;2.95;;;12.80;99.90;;;;;;5103387;28;20209;-60
2022/10/08 01:37:30;;;;;;;15.23;2.85;;;12.80;99.90;;;;;;5108911;28;20697;-60
2022/10/08 01:40:00;;;;;;;18.33;2.38;;;12.90;99.90;;;;;;5093492;28;20181;-59
2022/10/08 01:42:27;;;;;;;14.15;2.65;;;12.90;99.90;;;;;;5111333;28;20170;-59
2022/10/08 01:44:59;;;;;;;18.08;2.70;;;12.90;99.90;;;;;;5110464;28;20672;-62
2022/10/08 01:47:27;;;;;;;16.83;3.03;;;12.90;99.90;;;;;;5113215;28;20188;-59
2022/10/08 01:50:06;;;;;;;19.65;2.90;;;12.90;99.90;;;;;;5113421;28;20184;-60
2022/10/08 01:52:39;;;;;;;21.27;2.65;;;13.00;99.90;;;;;;5112334;28;20169;-60
2022/10/08 01:55:12;;;;;;;14.77;3.10;;;13.00;99.90;;;;;;5100783;28;20192;-61
2022/10/08 01:57:40;;;;;;;18.08;2.80;;;13.10;99.90;;;;;;5112324;28;20189;-62
2022/10/08 02:00:09;;;;;;;15.60;2.75;;;13.10;99.90;;;;;;5117637;28;20173;-61
2022/10/08 02:02:39;;;;;;;14.02;2.60;;;13.10;99.90;;;;;;5116659;28;20162;-60
2022/10/08 02:05:05;;;;;;;19.88;3.13;;;13.10;99.90;;;;;;5113613;28;20339;-60
2022/10/08 02:07:42;;;;;;;11.27;2.55;;;13.10;99.90;;;;;;5109969;28;20185;-59
2022/10/08 02:10:10;;;;;;;18.83;3.17;;;13.10;99.90;;;;;;5113272;28;20204;-59
2022/10/08 02:12:38;;;;;;;16.02;2.88;;;13.10;99.90;;;;;;5112611;28;20252;-59
2022/10/08 02:15:12;;;;;;;16.88;3.03;;;13.10;99.90;;;;;;5114387;28;20192;-59
2022/10/08 02:18:08;;;;;;;17.60;3.03;;;13.20;99.90;;;;;;5107674;28;20177;-61
2022/10/08 02:20:54;;;;;;;16.90;3.30;;;13.20;99.90;;;;;;5096630;28;20166;-60
2022/10/08 02:23:43;;;;;;;12.27;2.22;;;13.20;99.90;;;;;;5092283;28;20173;-61
2022/10/08 02:26:18;;;;;;;13.88;2.60;;;13.20;99.90;;;;;;5105706;28;20681;-60
2022/10/08 02:28:55;;;;;;;13.52;2.72;;;13.20;99.90;;;;;;5116721;28;20161;-61
2022/10/08 02:31:41;;;;;;;15.02;2.78;;;13.20;99.90;;;;;;5113685;28;20244;-60
2022/10/08 02:34:25;;;;;;;15.43;2.80;;;13.20;99.90;;;;;;5108593;28;20235;-63
2022/10/08 02:37:00;;;;;;;8.32;2.10;;;13.20;99.90;;;;;;5107295;28;20246;-60
2022/10/08 02:39:29;;;;;;;10.40;2.20;;;13.20;99.90;;;;;;5105676;28;20180;-60
2022/10/08 02:41:59;;;;;;;12.98;2.13;;;13.10;99.90;;;;;;5103806;28;20165;-60
2022/10/08 02:44:35;;;;;;;19.90;2.40;;;13.10;99.90;;;;;;5094990;28;20593;-59
2022/10/08 02:47:07;;;;;;;8.10;1.88;;;13.00;99.90;;;;;;5095517;28;20217;-60
2022/10/08 02:49:39;;;;;;;13.98;1.98;;;13.00;99.90;;;;;;5110308;28;20226;-60
2022/10/08 02:52:07;;;;;;;11.05;1.73;;;13.00;99.90;;;;;;5112753;28;20737;-60
2022/10/08 02:54:37;;;;;;;12.23;2.45;;;12.90;99.90;;;;;;5114877;28;20215;-59
2022/10/08 02:57:13;;;;;;;13.65;2.08;;;12.90;99.90;;;;;;5081788;28;20629;-59
2022/10/08 02:59:39;;;;;;;9.65;1.73;;;12.90;99.90;;;;;;5096498;28;20663;-60
2022/10/08 03:02:05;;;;;;;15.73;2.47;;;12.90;99.90;;;;;;5111910;28;20189;-60
2022/10/08 03:04:39;;;;;;;8.63;1.85;;;12.90;99.90;;;;;;5099666;28;20256;-60
2022/10/08 03:07:05;;;;;;;8.75;2.00;;;12.90;99.90;;;;;;5119655;28;20223;-60
2022/10/08 03:09:35;;;;;;;13.18;1.92;;;12.90;99.90;;;;;;5118741;28;20266;-60
2022/10/08 03:12:01;;;;;;;16.58;2.33;;;12.90;99.90;;;;;;5104053;28;20178;-60
2022/10/08 03:14:29;;;;;;;17.60;2.35;;;13.00;99.90;;;;;;5092915;28;20188;-61
2022/10/08 03:16:55;;;;;;;8.52;1.83;;;13.00;99.90;;;;;;5095662;28;20245;-61
2022/10/08 03:19:20;;;;;;;11.15;1.90;;;13.00;99.90;;;;;;5096479;28;20589;-61
2022/10/08 03:21:49;;;;;;;16.02;1.83;;;13.00;99.90;;;;;;5097221;28;20268;-61
2022/10/08 03:24:15;;;;;;;15.32;2.08;;;13.00;99.90;;;;;;5097399;28;20557;-62
2022/10/08 03:26:41;;;;;;;16.75;2.40;;;13.10;99.90;;;;;;5097657;28;20217;-61
2022/10/08 03:29:08;;;;;;;8.45;1.60;;;13.00;99.90;;;;;;5097010;28;20205;-61
2022/10/08 03:31:34;;;;;;;14.45;2.20;;;13.00;99.90;;;;;;5116374;28;20226;-60
2022/10/08 03:34:00;;;;;;;9.55;1.98;;;13.00;99.90;;;;;;5116172;28;20181;-60
2022/10/08 03:36:26;;;;;;;13.23;1.80;;;13.00;99.90;;;;;;5117093;28;20185;-61
2022/10/08 03:38:52;;;;;;;9.30;1.83;;;13.00;99.90;;;;;;5115957;28;20205;-61
2022/10/08 03:41:18;;;;;;;10.45;1.98;;;13.00;99.90;;;;;;5111486;28;20188;-62
2022/10/08 03:43:44;;;;;;;14.80;1.95;;;13.00;99.90;;;;;;5113664;28;20629;-60
2022/10/08 03:46:11;;;;;;;10.80;1.95;;;13.00;99.90;;;;;;5117073;28;20237;-61
2022/10/08 03:48:37;;;;;;;16.58;1.77;;;13.10;99.90;;;;;;5117073;28;20215;-63
2022/10/08 03:51:11;;;;;;;9.65;2.00;;;13.10;99.90;;;;;;5115343;28;20173;-61
2022/10/08 03:53:39;;;;;;;11.20;1.88;;;13.10;99.90;;;;;;5116055;28;20177;-64
2022/10/08 03:56:08;;;;;;;12.20;2.17;;;13.10;99.90;;;;;;5113614;28;20268;-61
2022/10/08 03:58:34;;;;;;;15.93;2.13;;;13.10;99.90;;;;;;5116955;28;20174;-61
2022/10/08 04:01:03;;;;;;;16.85;2.00;;;13.10;99.90;;;;;;5116768;28;20203;-60
2022/10/08 04:03:29;;;;;;;14.15;2.20;;;13.10;99.90;;;;;;5115007;28;20188;-61
2022/10/08 04:05:56;;;;;;;12.27;1.95;;;13.10;99.90;;;;;;5099717;28;20220;-61
2022/10/08 04:08:22;;;;;;;7.57;1.77;;;13.10;99.90;;;;;;5112345;28;20272;-61
2022/10/08 04:10:47;;;;;;;12.93;2.05;;;13.10;99.90;;;;;;5115384;28;20269;-61
2022/10/08 04:13:14;;;;;;;9.13;1.73;;;13.10;99.90;;;;;;5112903;28;20276;-61
2022/10/08 04:15:46;;;;;;;11.10;1.85;;;13.10;99.90;;;;;;5114949;28;20253;-61
2022/10/08 04:18:12;;;;;;;13.50;2.15;;;13.10;99.90;;;;;;5108079;28;20191;-61
2022/10/08 04:20:44;;;;;;;10.85;1.83;;;13.10;99.90;;;;;;5102714;28;20238;-61
2022/10/08 04:23:10;;;;;;;9.15;1.77;;;13.20;99.90;;;;;;5096054;28;20174;-61
2022/10/08 04:25:36;;;;;;;14.02;2.15;;;13.20;99.90;;;;;;5096573;28;20202;-61
2022/10/08 04:28:03;;;;;;;14.70;2.00;;;13.20;99.90;;;;;;5108691;28;20189;-61
2022/10/08 04:30:30;;;;;;;16.50;2.15;;;13.20;99.90;;;;;;5115971;28;20177;-60
2022/10/08 04:32:56;;;;;;;12.23;1.60;;;13.20;99.90;;;;;;5108711;28;20224;-61
2022/10/08 04:35:22;;;;;;;15.00;1.80;;;13.20;99.90;;;;;;5095659;28;20236;-61
2022/10/08 04:37:48;;;;;;;16.42;2.13;;;13.20;99.90;;;;;;5095740;28;20917;-61
2022/10/08 04:40:13;;;;;;;8.85;1.90;;;13.20;99.90;;;;;;5106554;27;20601;-61
2022/10/08 04:42:39;;;;;;;16.15;2.42;;;13.20;99.90;;;;;;5098928;28;20272;-62
2022/10/08 04:45:05;;;;;;;9.60;1.95;;;13.20;99.90;;;;;;5103943;28;20680;-62
2022/10/08 04:47:31;;;;;;;10.65;1.75;;;13.20;99.90;;;;;;5092623;28;20178;-62
2022/10/08 04:49:57;;;;;;;13.93;2.13;;;13.20;99.90;;;;;;5107139;28;20644;-61
2022/10/08 04:52:23;;;;;;;10.18;1.85;;;13.20;99.90;;;;;;5112441;28;20173;-61
2022/10/08 04:54:48;;;;;;;11.23;1.80;;;13.20;99.90;;;;;;5112778;28;20280;-61
2022/10/08 04:57:14;;;;;;;16.75;2.13;;;13.10;99.90;;;;;;5105725;28;20202;-61
2022/10/08 04:59:40;;;;;;;12.38;1.80;;;13.10;99.90;;;;;;5105142;28;20179;-61
2022/10/08 05:02:05;;;;;;;14.88;1.92;;;13.10;99.90;;;;;;5102393;28;20265;-61
2022/10/08 05:04:31;;;;;;;19.65;2.42;;;13.10;99.90;;;;;;5103753;28;20247;-61
2022/10/08 05:06:57;;;;;;;22.33;6.50;;;13.10;99.90;;;;;;5101741;28;20215;-60
2022/10/08 05:09:22;;;;;;;9.00;1.95;;;13.10;99.90;;;;;;5105065;28;20175;-61
2022/10/08 05:11:52;;;;;;;9.30;1.80;;;13.10;99.90;;;;;;5103431;28;20178;-61
2022/10/08 05:14:17;;;;;;;17.45;1.98;;;13.10;99.90;;;;;;5098815;28;20638;-61
2022/10/08 05:16:43;;;;;;;8.68;1.73;;;13.10;99.90;;;;;;5106255;28;20203;-60
2022/10/08 05:19:09;;;;;;;12.02;1.83;;;13.10;99.90;;;;;;5090463;28;20618;-61
2022/10/08 05:21:35;;;;;;;12.52;1.70;;;13.00;99.90;;;;;;5113327;28;20177;-63
2022/10/08 05:24:05;;;;;;;7.45;1.52;;;13.00;99.90;;;;;;5111676;28;20177;-64
2022/10/08 05:26:34;;;;;;;16.50;1.95;;;13.00;99.90;;;;;;5112300;28;20239;-62
2022/10/08 05:29:00;;;;;;;10.85;1.85;;;13.00;99.90;;;;;;5110037;28;20181;-61
2022/10/08 05:31:28;;;;;;;11.15;1.90;;;13.00;99.90;;;;;;5107267;28;20177;-63
2022/10/08 05:33:54;;;;;;;11.23;1.58;;;13.00;99.90;;;;;;5103348;28;20298;-62
2022/10/08 05:36:29;;;;;;;12.65;1.60;;;13.00;99.90;;;;;;5113831;28;20177;-61
2022/10/08 05:38:57;;;;;;;15.95;2.10;;;13.00;99.90;;;;;;5114816;28;20157;-62
2022/10/08 05:41:25;;;;;;;8.50;1.80;;;13.00;99.90;;;;;;5106204;28;20174;-62
2022/10/08 05:43:53;;;;;;;11.48;1.98;;;13.00;99.90;;;;;;5107750;28;20177;-59
2022/10/08 05:46:20;;;;;;;7.55;1.52;;;13.00;99.90;;;;;;5111908;28;20229;-64
2022/10/08 05:48:45;;;;;;;15.07;2.10;;;13.00;99.90;;;;;;5101192;28;20251;-63
2022/10/08 05:51:14;;;;;;;12.50;2.05;;;13.00;99.90;;;;;;5109759;28;20205;-63
2022/10/08 05:53:42;;;;;;;13.32;1.88;;;12.90;99.90;;;;;;5114833;28;20173;-64
2022/10/08 05:56:10;;;;;;;11.90;3.67;;;12.90;99.90;;;;;;5114199;28;20165;-62
2022/10/08 05:58:38;;;;;;;11.10;1.88;;;13.00;99.90;;;;;;5114147;28;20251;-65
2022/10/08 06:01:14;;;;;;;12.85;1.52;;;13.00;99.90;;;;;;5108905;28;20165;-60
2022/10/08 06:03:40;;;;;;;9.95;1.45;;;13.00;99.90;;;;;;5095667;28;20185;-60
2022/10/08 06:06:08;;;;;;;8.20;1.80;;;13.00;99.90;;;;;;5093496;28;20198;-62
2022/10/08 06:08:35;;;;;;;7.50;1.67;;;13.00;99.90;;;;;;5093058;28;20197;-63
2022/10/08 06:11:02;;;;;;;11.07;1.73;;;13.00;99.90;;;;;;5097027;28;20181;-66
2022/10/08 06:13:28;;;;;;;10.85;1.98;;;13.00;99.90;;;;;;5111998;28;20223;-64
2022/10/08 06:16:19;;;;;;;7.30;1.73;;;13.10;99.90;;;;;;5112503;28;20212;-64
2022/10/08 06:18:45;;;;;;;13.65;1.77;;;13.10;99.90;;;;;;5107064;28;20562;-66
2022/10/08 06:21:13;;;;;;;11.18;1.88;;;13.10;99.90;;;;;;5113716;28;20170;-65
2022/10/08 06:24:03;;;;;;;18.00;2.00;;;13.10;99.90;;;;;;5112947;28;20648;-66
2022/10/08 06:26:35;;;;;;;11.40;1.83;;;13.10;99.90;;;;;;5100592;28;20200;-61
2022/10/08 06:29:04;;;;;;;10.18;1.67;;;13.10;99.90;;;;;;5112530;28;20169;-62
2022/10/08 06:31:30;;;;;;;12.95;1.95;;;13.10;99.90;;;;;;5113794;28;20219;-61
2022/10/08 06:33:57;;;;;;;10.65;1.65;;;13.10;99.90;;;;;;5105699;28;20680;-61
2022/10/08 06:36:25;;;;;;;8.57;1.88;;;13.10;99.90;;;;;;5112323;28;20628;-62
2022/10/08 06:38:53;;;;;;;9.63;1.73;;;13.10;99.90;;;;;;5097638;28;20272;-62
2022/10/08 06:41:19;;;;;;;13.05;1.88;;;13.10;99.90;;;;;;5104131;28;20193;-61
2022/10/08 06:43:45;;;;;;;7.45;1.75;;;13.10;99.90;;;;;;5109411;28;20188;-62
2022/10/08 06:46:11;;;;;;;14.88;2.00;;;13.10;99.90;;;;;;5097254;28;20279;-62
2022/10/08 06:48:38;;;;;;;14.00;1.90;;;13.20;99.90;;;;;;5093553;28;20201;-62
2022/10/08 06:51:06;;;;;;;14.23;1.90;;;13.10;99.90;;;;;;5103430;28;20234;-62
2022/10/08 06:53:33;;;;;;;7.32;1.50;;;13.20;99.90;;;;;;5108846;28;20223;-61
2022/10/08 06:56:02;;;;;;;14.32;1.80;;;13.20;99.90;;;;;;5110548;28;20245;-62
2022/10/08 06:58:28;;;;;;;10.75;1.50;;;13.30;99.90;;;;;;5109697;28;20252;-62
2022/10/08 07:01:05;;;;;;;8.45;1.40;;;13.40;99.90;;;;;;5102805;28;20177;-62
2022/10/08 07:03:31;;;;;;;8.90;1.60;;;13.50;99.90;;;;;;5098922;28;20190;-62
2022/10/08 07:06:02;;;;;;;12.07;1.98;;;13.50;99.90;;;;;;5107739;28;20209;-62
2022/10/08 07:08:29;;;;;;;8.27;2.05;;;13.60;99.90;;;;;;5111126;28;20633;-62
2022/10/08 07:10:55;;;;;;;12.80;2.00;;;13.70;99.90;;;;;;5098476;28;20177;-63
2022/10/08 07:13:21;;;;;;;11.07;2.03;;;13.70;99.90;;;;;;5111767;28;20200;-61
2022/10/08 07:15:47;;;;;;;12.13;2.50;;;13.70;99.90;;;;;;5094463;28;20252;-63
2022/10/08 07:18:12;;;;;;;13.70;2.95;;;13.60;99.90;;;;;;5105166;28;20663;-63
2022/10/08 07:20:38;;;;;;;9.30;1.55;;;13.50;99.90;;;;;;5108027;28;20692;-62
2022/10/08 07:23:04;;;;;;;9.73;1.63;;;13.40;99.90;;;;;;5093460;28;20857;-62
2022/10/08 07:25:30;;;;;;;7.95;1.73;;;13.30;99.90;;;;;;5110823;28;20212;-61
2022/10/08 07:27:56;;;;;;;8.13;2.10;;;13.20;99.90;;;;;;5113447;28;20181;-62
2022/10/08 07:30:22;;;;;;;6.93;1.70;;;13.10;99.90;;;;;;5102159;28;20177;-62
2022/10/08 07:32:52;;;;;;;8.43;1.80;;;13.10;99.90;;;;;;5098229;28;20232;-62
2022/10/08 07:35:18;;;;;;;11.90;2.00;;;13.00;99.90;;;;;;5105336;28;20184;-62
2022/10/08 07:37:44;;;;;;;13.65;2.00;;;12.90;99.90;;;;;;5113269;28;20162;-62
2022/10/08 07:40:10;;;;;;;10.77;1.80;;;12.90;99.90;;;;;;5108722;28;20243;-62
2022/10/08 07:42:36;;;;;;;10.93;2.42;;;12.90;99.90;;;;;;5092590;28;20606;-62
2022/10/08 07:45:02;;;;;;;10.30;1.95;;;12.80;99.90;;;;;;5110712;28;20254;-62
2022/10/08 07:47:27;;;;;;;12.10;1.92;;;12.80;99.90;;;;;;5111566;28;20225;-62
2022/10/08 07:49:53;;;;;;;9.85;1.70;;;12.90;99.90;;;;;;5109437;28;20522;-61
2022/10/08 07:52:19;;;;;;;9.50;2.20;;;12.90;99.90;;;;;;5098671;28;20181;-62
2022/10/08 07:54:44;;;;;;;9.32;2.17;;;12.90;99.90;;;;;;5103597;28;20530;-62
2022/10/08 07:57:10;;;;;;;16.10;2.25;;;12.90;99.90;;;;;;5096358;28;20558;-61
2022/10/08 07:59:36;;;;;;;16.33;3.17;;;12.90;99.90;;;;;;5110527;28;20272;-61
2022/10/08 08:02:02;;;;;;;16.35;2.70;;;12.90;99.90;;;;;;5109522;28;20656;-62
2022/10/08 08:04:27;;;;;;;15.63;2.65;;;12.90;99.90;;;;;;5103496;28;20613;-61
2022/10/08 08:06:53;;;;;;;15.27;2.78;;;12.90;99.90;;;;;;5113140;28;20350;-61
2022/10/08 08:09:19;;;;;;;13.05;2.78;;;13.00;99.90;;;;;;5111806;28;20498;-62
2022/10/08 08:11:47;;;;;;;16.63;2.60;;;13.00;99.90;;;;;;5113480;28;20185;-62
2022/10/08 08:14:13;;;;;;;12.38;2.40;;;13.10;99.90;;;;;;5100615;28;20222;-62
2022/10/08 08:16:39;;;;;;;13.82;2.15;;;13.10;99.90;;;;;;5116582;28;20174;-62
2022/10/08 08:19:05;;;;;;;10.70;2.08;;;13.20;99.90;;;;;;5110639;28;20353;-62
2022/10/08 08:21:33;;;;;;;9.15;2.22;;;13.20;99.90;;;;;;5101491;28;20185;-61
2022/10/08 08:24:08;;;;;;;8.25;1.73;;;13.30;99.90;;;;;;5098326;28;20181;-62
2022/10/08 08:26:36;;;;;;;9.85;1.83;;;13.40;99.90;;;;;;5077617;28;20331;-62
2022/10/08 08:29:14;;;;;;;8.85;1.88;;;13.40;99.90;;;;;;5112911;28;20180;-62
2022/10/08 08:31:45;;;;;;;10.98;2.22;;;13.50;99.90;;;;;;5107965;28;20253;-62
2022/10/08 08:34:17;;;;;;;10.50;1.60;;;13.60;99.90;;;;;;5101648;28;20233;-62
2022/10/08 08:36:45;;;;;;;6.93;1.98;;;13.70;99.90;;;;;;5111929;28;20637;-62
2022/10/08 08:39:16;;;;;;;10.15;1.70;;;13.70;99.90;;;;;;5113885;28;20173;-62
2022/10/08 08:41:55;;;;;;;7.60;1.75;;;13.80;99.90;;;;;;5103819;28;20182;-62
2022/10/08 08:44:26;;;;;;;9.23;1.90;;;13.80;99.90;;;;;;5104566;28;20185;-62
2022/10/08 08:47:11;;;;;;;7.28;1.63;;;13.90;99.90;;;;;;5114376;28;20268;-62
2022/10/08 08:49:56;;;;;;;9.10;1.80;;;14.10;99.90;;;;;;5111306;28;20173;-62
2022/10/08 08:52:25;;;;;;;12.65;2.13;;;14.30;99.90;;;;;;5113917;28;20268;-62
2022/10/08 08:54:52;;;;;;;8.75;1.55;;;14.40;99.90;;;;;;5102585;28;20180;-62
2022/10/08 08:57:36;;;;;;;11.98;1.75;;;14.40;99.90;;;;;;5108345;28;20361;-61
2022/10/08 09:00:14;;;;;;;9.05;1.65;;;14.40;99.90;;;;;;5113386;28;20185;-62
2022/10/08 09:03:01;;;;;;;11.60;1.95;;;14.30;99.90;;;;;;5115768;28;20237;-62
2022/10/08 09:05:30;;;;;;;11.32;1.90;;;14.30;99.90;;;;;;5106242;28;20217;-61
2022/10/08 09:08:12;;;;;;;8.52;1.63;;;14.40;99.90;;;;;;5105038;28;20649;-61
2022/10/08 09:10:45;;;;;;;8.77;1.95;;;14.40;99.90;;;;;;5113353;28;20557;-61
2022/10/08 09:13:18;;;;;;;6.97;1.67;;;14.50;99.90;;;;;;5115702;28;20206;-62
2022/10/08 09:15:45;;;;;;;8.25;2.00;;;14.60;99.90;;;;;;5105626;28;20220;-61
2022/10/08 09:18:13;;;;;;;9.02;2.00;;;14.70;99.90;;;;;;5099720;28;20200;-61
2022/10/08 09:20:39;;;;;;;14.55;2.22;;;14.70;99.90;;;;;;5112816;28;20192;-61
2022/10/08 09:23:25;;;;;;;13.23;1.92;;;14.80;99.90;;;;;;5101012;28;20698;-61
2022/10/08 09:26:02;;;;;;;9.55;2.03;;;14.80;99.90;;;;;;5111388;28;20197;-61
2022/10/08 09:28:46;;;;;;;12.18;1.75;;;14.90;99.90;;;;;;5091828;28;21412;-60
2022/10/08 09:31:29;;;;;;;11.13;1.70;;;15.00;99.90;;;;;;5095219;28;20182;-60
2022/10/08 09:34:09;;;;;;;12.18;1.60;;;15.00;99.90;;;;;;5108122;28;20657;-61
2022/10/08 09:36:41;;;;;;;10.23;1.92;;;15.10;99.90;;;;;;5101514;28;20256;-61
2022/10/08 09:39:15;;;;;;;9.05;1.63;;;15.10;99.90;;;;;;5100919;28;20230;-60
2022/10/08 09:41:42;;;;;;;11.70;1.73;;;15.20;99.90;;;;;;5103330;28;20294;-61
2022/10/08 09:44:17;;;;;;;10.82;1.88;;;15.30;99.90;;;;;;5096486;28;20246;-60
2022/10/08 09:46:44;;;;;;;11.75;2.05;;;15.40;99.90;;;;;;5113401;28;20220;-62
2022/10/08 09:49:20;;;;;;;8.75;1.45;;;15.30;99.90;;;;;;5098422;28;20197;-61
2022/10/08 09:51:49;;;;;;;10.27;1.88;;;15.30;99.90;;;;;;5103295;28;20184;-62
2022/10/08 09:54:22;;;;;;;13.30;1.83;;;15.30;99.90;;;;;;5112162;28;20678;-60
2022/10/08 09:56:56;;;;;;;9.43;1.88;;;15.40;99.90;;;;;;5114232;28;20189;-61
2022/10/08 09:59:26;;;;;;;10.13;1.55;;;15.40;99.90;;;;;;5106007;28;20213;-61
2022/10/08 10:01:54;;;;;;;11.55;2.08;;;15.30;99.90;;;;;;5109350;28;20200;-61
2022/10/08 10:04:34;;;;;;;15.43;2.10;;;15.30;99.90;;;;;;5100964;28;20205;-61
2022/10/08 10:07:00;;;;;;;10.30;1.58;;;15.30;99.90;;;;;;5114908;28;20285;-61
2022/10/08 10:09:35;;;;;;;10.73;1.80;;;15.30;99.90;;;;;;5107312;28;20237;-61
2022/10/08 10:12:27;;;;;;;9.70;1.90;;;15.40;99.90;;;;;;5098088;28;20168;-62
2022/10/08 10:15:03;;;;;;;8.20;1.50;;;15.50;99.90;;;;;;5110627;28;20173;-61
2022/10/08 10:17:42;;;;;;;12.77;1.77;;;15.60;99.50;;;;;;5112601;28;20181;-61
2022/10/08 10:20:26;;;;;;;8.20;1.60;;;15.60;98.30;;;;;;5102209;28;20717;-60
2022/10/08 10:23:12;;;;;;;7.38;1.90;;;15.60;98.60;;;;;;5099290;28;20185;-60
2022/10/08 10:25:46;;;;;;;13.27;2.25;;;15.70;98.70;;;;;;5108113;28;20250;-60
2022/10/08 10:28:32;;;;;;;6.93;1.83;;;15.80;99.20;;;;;;5113615;28;20218;-60
2022/10/08 10:31:04;;;;;;;17.13;2.25;;;15.90;99.40;;;;;;5110478;28;20211;-60
2022/10/08 10:33:33;;;;;;;11.45;2.17;;;16.00;99.10;;;;;;5099909;28;20185;-60
2022/10/08 10:36:04;;;;;;;12.65;2.75;;;16.00;98.90;;;;;;5110138;28;20266;-60
2022/10/08 10:38:35;;;;;;;13.50;1.70;;;16.10;99.10;;;;;;5112271;28;20242;-60
2022/10/08 10:41:30;;;;;;;10.77;2.13;;;16.20;98.80;;;;;;5101450;28;20177;-61
2022/10/08 10:44:02;;;;;;;13.65;1.80;;;16.30;98.00;;;;;;5090177;28;20487;-61
2022/10/08 10:46:41;;;;;;;7.65;1.42;;;16.30;97.50;;;;;;5109706;28;20236;-60
2022/10/08 10:49:27;;;;;;;8.35;1.60;;;16.30;97.50;;;;;;5100152;28;20169;-61
2022/10/08 10:52:15;;;;;;;8.57;1.52;;;16.40;96.80;;;;;;5102224;28;20181;-61
2022/10/08 10:55:18;;;;;;;7.80;1.92;;;16.40;94.60;;;;;;5109690;28;20169;-63
2022/10/08 10:57:53;;;;;;;6.65;1.65;;;16.40;95.10;;;;;;5099100;28;20176;-61
2022/10/08 11:00:29;;;;;;;11.55;1.73;;;16.40;95.50;;;;;;5108081;28;20221;-61
2022/10/08 11:03:20;;;;;;;12.85;1.98;;;16.40;95.70;;;;;;5100043;28;20325;-61
2022/10/08 11:05:54;;;;;;;9.27;2.10;;;16.30;95.80;;;;;;5099968;28;20668;-60
2022/10/08 11:08:32;;;;;;;9.15;1.90;;;16.30;96.20;;;;;;5112176;28;20188;-61
2022/10/08 11:11:19;;;;;;;14.65;2.08;;;16.40;96.50;;;;;;5111398;28;20285;-60
2022/10/08 11:13:53;;;;;;;8.75;1.83;;;16.50;96.50;;;;;;5095855;28;20207;-61
2022/10/08 11:16:48;;;;;;;10.32;2.13;;;16.60;96.30;;;;;;5110059;28;20211;-60
2022/10/08 11:19:35;;;;;;;11.48;1.98;;;16.70;96.50;;;;;;5110504;28;20169;-60
2022/10/08 11:22:29;;;;;;;16.17;2.40;;;16.90;96.80;;;;;;5098330;28;20202;-60
2022/10/08 11:25:22;;;;;;;10.80;1.98;;;17.00;96.90;;;;;;5113063;28;20238;-60
2022/10/08 11:28:39;;;;;;;12.85;2.28;;;17.00;96.90;;;;;;5107379;28;20189;-60
2022/10/08 11:31:05;;;;;;;12.35;2.17;;;17.00;97.20;;;;;;5059957;28;20198;-61
2022/10/08 11:33:32;;;;;;;15.15;2.03;;;17.10;97.30;;;;;;5100199;28;20686;-61
2022/10/08 11:36:12;;;;;;;17.20;2.30;;;17.20;97.40;;;;;;5115336;28;20189;-61
2022/10/08 11:38:48;;;;;;;16.85;2.35;;;17.30;97.70;;;;;;5117130;28;20157;-60
2022/10/08 11:41:32;;;;;;;8.57;1.90;;;17.50;97.60;;;;;;5108558;28;20185;-61
2022/10/08 11:44:00;;;;;;;13.07;1.95;;;17.70;97.00;;;;;;5104334;28;20190;-60
2022/10/08 11:46:35;;;;;;;9.50;1.75;;;17.80;96.80;;;;;;5116711;28;20254;-60
2022/10/08 11:49:08;;;;;;;13.98;2.40;;;17.80;96.00;;;;;;5114026;28;20711;-61
2022/10/08 11:51:36;;;;;;;14.48;2.35;;;17.80;96.50;;;;;;5114917;28;20193;-60
2022/10/08 11:54:02;;;;;;;22.27;2.20;;;17.80;96.60;;;;;;5114192;28;20755;-60
2022/10/08 11:56:28;;;;;;;19.23;2.60;;;17.80;96.30;;;;;;5116588;28;20652;-60
2022/10/08 11:58:57;;;;;;;13.48;1.80;;;17.50;96.00;;;;;;5112373;28;20193;-61
2022/10/08 12:01:23;;;;;;;12.45;1.95;;;17.30;96.30;;;;;;5102545;28;20260;-61
2022/10/08 12:04:18;;;;;;;12.13;2.05;;;17.10;96.70;;;;;;5102499;28;20181;-60
2022/10/08 12:06:46;;;;;;;11.20;1.75;;;17.00;96.70;;;;;;5105487;28;20200;-60
2022/10/08 12:09:58;;;;;;;8.57;1.80;;;16.90;97.00;;;;;;5114964;28;20674;-60
2022/10/08 12:12:24;;;;;;;12.63;2.08;;;17.00;96.60;;;;;;5115776;28;20238;-61
2022/10/08 12:14:50;;;;;;;12.85;2.13;;;17.20;96.30;;;;;;5100901;28;20210;-61
2022/10/08 12:17:16;;;;;;;10.88;1.85;;;17.50;96.00;;;;;;5100291;28;20329;-62
2022/10/08 12:19:58;;;;;;;11.75;1.88;;;17.60;95.70;;;;;;5111881;28;20181;-61
2022/10/08 12:22:27;;;;;;;13.18;1.70;;;17.80;95.40;;;;;;5116563;28;20161;-62
2022/10/08 12:24:57;;;;;;;10.93;1.95;;;17.80;95.10;;;;;;5103727;28;21992;-62
2022/10/08 12:27:29;;;;;;;14.10;1.85;;;17.80;94.60;;;;;;5109181;28;20190;-62
2022/10/08 12:30:04;;;;;;;7.97;1.90;;;17.80;94.70;;;;;;5107477;28;20181;-62
2022/10/08 12:32:52;;;;;;;8.88;1.55;;;17.70;94.60;;;;;;5115280;28;20175;-62
2022/10/08 12:35:35;;;;;;;7.47;1.60;;;17.80;93.10;;;;;;5105387;28;20212;-62
2022/10/08 12:38:14;;;;;;;8.57;1.77;;;17.80;93.60;;;;;;5111060;28;20205;-62
2022/10/08 12:41:01;;;;;;;7.80;1.50;;;17.90;93.80;;;;;;5107430;28;20174;-62
2022/10/08 12:43:54;;;;;;;6.93;1.67;;;18.10;93.60;;;;;;5095172;28;20177;-62
2022/10/08 12:46:20;;;;;;;9.15;1.58;;;18.40;93.00;;;;;;5094986;28;20233;-62
2022/10/08 12:48:55;;;;;;;11.68;2.00;;;18.60;93.00;;;;;;5104763;28;20189;-62
2022/10/08 12:52:04;;;;;;;7.55;1.60;;;18.90;93.00;;;;;;5095012;28;20157;-62
2022/10/08 12:54:31;;;;;;;9.55;1.80;;;19.00;90.00;;;;;;5101226;28;20173;-63
2022/10/08 12:56:58;;;;;;;12.55;2.17;;;18.90;90.70;;;;;;5110499;28;20193;-62
2022/10/08 12:59:30;;;;;;;12.60;1.88;;;18.70;90.80;;;;;;5113358;28;20637;-63
2022/10/08 13:01:56;;;;;;;10.52;1.70;;;18.80;90.80;;;;;;5115124;28;20605;-62
2022/10/08 13:04:31;;;;;;;10.50;1.80;;;19.10;91.00;;;;;;5113764;28;20216;-64